sensor_id;sensor_type;location;lat;lon;timestamp;P1;durP1;ratioP1;P2;durP2;ratioP2
63534;SDS011;55128;50.230;18.944;2024-01-30T00:00:56;65.65;;;33.22;;
63534;SDS011;55128;50.230;18.944;2024-01-30T00:05:57;66.75;;;33.35;;
63534;SDS011;55128;50.230;18.944;2024-01-30T00:10:57;66.30;;;33.60;;
63534;SDS011;55128;50.230;18.944;2024-01-30T00:15:58;67.25;;;35.95;;
63534;SDS011;55128;50.230;18.944;2024-01-30T00:20:58;70.40;;;33.80;;
63534;SDS011;55128;50.230;18.944;2024-01-30T00:25:58;69.30;;;33.63;;
63534;SDS011;55128;50.230;18.944;2024-01-30T00:30:59;68.00;;;33.33;;
63534;SDS011;55128;50.230;18.944;2024-01-30T00:35:59;64.80;;;32.40;;
63534;SDS011;55128;50.230;18.944;2024-01-30T00:40:59;67.10;;;31.42;;
63534;SDS011;55128;50.230;18.944;2024-01-30T00:46:00;63.00;;;31.23;;
63534;SDS011;55128;50.230;18.944;2024-01-30T00:51:00;69.05;;;32.40;;
63534;SDS011;55128;50.230;18.944;2024-01-30T00:56:01;65.40;;;30.88;;
63534;SDS011;55128;50.230;18.944;2024-01-30T01:01:01;59.63;;;31.52;;
63534;SDS011;55128;50.230;18.944;2024-01-30T01:06:02;62.38;;;32.15;;
63534;SDS011;55128;50.230;18.944;2024-01-30T01:11:03;65.15;;;32.80;;
63534;SDS011;55128;50.230;18.944;2024-01-30T01:16:03;62.58;;;32.15;;
63534;SDS011;55128;50.230;18.944;2024-01-30T01:21:04;69.13;;;34.08;;
63534;SDS011;55128;50.230;18.944;2024-01-30T01:26:04;57.97;;;30.75;;
63534;SDS011;55128;50.230;18.944;2024-01-30T01:31:05;63.10;;;31.95;;
63534;SDS011;55128;50.230;18.944;2024-01-30T01:36:06;61.13;;;31.83;;
63534;SDS011;55128;50.230;18.944;2024-01-30T01:41:06;66.13;;;30.02;;
63534;SDS011;55128;50.230;18.944;2024-01-30T01:46:07;60.10;;;30.85;;
63534;SDS011;55128;50.230;18.944;2024-01-30T01:51:08;59.33;;;30.88;;
63534;SDS011;55128;50.230;18.944;2024-01-30T01:56:09;66.15;;;32.63;;
63534;SDS011;55128;50.230;18.944;2024-01-30T02:01:10;63.55;;;31.23;;
63534;SDS011;55128;50.230;18.944;2024-01-30T02:06:16;62.08;;;32.10;;
63534;SDS011;55128;50.230;18.944;2024-01-30T02:11:17;68.20;;;31.13;;
63534;SDS011;55128;50.230;18.944;2024-01-30T02:16:18;63.25;;;30.00;;
63534;SDS011;55128;50.230;18.944;2024-01-30T02:21:18;59.22;;;30.67;;
63534;SDS011;55128;50.230;18.944;2024-01-30T02:26:19;67.45;;;32.42;;
63534;SDS011;55128;50.230;18.944;2024-01-30T02:31:20;65.43;;;31.60;;
63534;SDS011;55128;50.230;18.944;2024-01-30T02:36:20;52.95;;;27.73;;
63534;SDS011;55128;50.230;18.944;2024-01-30T02:41:21;59.88;;;28.00;;
63534;SDS011;55128;50.230;18.944;2024-01-30T02:46:22;52.55;;;30.35;;
63534;SDS011;55128;50.230;18.944;2024-01-30T02:51:22;58.40;;;32.28;;
63534;SDS011;55128;50.230;18.944;2024-01-30T02:56:23;52.08;;;28.27;;
63534;SDS011;55128;50.230;18.944;2024-01-30T03:01:23;58.20;;;27.55;;
63534;SDS011;55128;50.230;18.944;2024-01-30T03:06:24;49.80;;;26.75;;
63534;SDS011;55128;50.230;18.944;2024-01-30T03:11:24;50.00;;;26.40;;
63534;SDS011;55128;50.230;18.944;2024-01-30T03:16:25;49.63;;;25.48;;
63534;SDS011;55128;50.230;18.944;2024-01-30T03:21:25;40.47;;;21.73;;
63534;SDS011;55128;50.230;18.944;2024-01-30T03:26:26;49.70;;;25.25;;
63534;SDS011;55128;50.230;18.944;2024-01-30T03:31:26;43.75;;;21.33;;
63534;SDS011;55128;50.230;18.944;2024-01-30T03:36:27;41.55;;;23.15;;
63534;SDS011;55128;50.230;18.944;2024-01-30T03:41:27;39.05;;;20.65;;
63534;SDS011;55128;50.230;18.944;2024-01-30T03:46:28;39.00;;;18.92;;
63534;SDS011;55128;50.230;18.944;2024-01-30T03:51:28;42.53;;;21.27;;
63534;SDS011;55128;50.230;18.944;2024-01-30T03:56:29;47.42;;;22.80;;
63534;SDS011;55128;50.230;18.944;2024-01-30T04:01:29;39.47;;;21.70;;
63534;SDS011;55128;50.230;18.944;2024-01-30T04:06:29;38.67;;;20.33;;
63534;SDS011;55128;50.230;18.944;2024-01-30T04:11:30;35.92;;;19.35;;
63534;SDS011;55128;50.230;18.944;2024-01-30T04:16:30;39.15;;;21.90;;
63534;SDS011;55128;50.230;18.944;2024-01-30T04:21:30;42.95;;;22.45;;
63534;SDS011;55128;50.230;18.944;2024-01-30T04:26:31;35.47;;;19.63;;
63534;SDS011;55128;50.230;18.944;2024-01-30T04:31:31;36.40;;;19.90;;
63534;SDS011;55128;50.230;18.944;2024-01-30T04:36:32;32.63;;;17.83;;
63534;SDS011;55128;50.230;18.944;2024-01-30T04:41:32;31.85;;;17.60;;
63534;SDS011;55128;50.230;18.944;2024-01-30T04:46:33;37.05;;;19.50;;
63534;SDS011;55128;50.230;18.944;2024-01-30T04:51:34;44.05;;;21.90;;
63534;SDS011;55128;50.230;18.944;2024-01-30T04:56:34;40.57;;;20.33;;
63534;SDS011;55128;50.230;18.944;2024-01-30T05:01:35;41.42;;;21.80;;
63534;SDS011;55128;50.230;18.944;2024-01-30T05:06:36;37.35;;;20.67;;
63534;SDS011;55128;50.230;18.944;2024-01-30T05:11:37;40.33;;;21.67;;
63534;SDS011;55128;50.230;18.944;2024-01-30T05:16:38;36.40;;;20.13;;
63534;SDS011;55128;50.230;18.944;2024-01-30T05:21:39;41.08;;;21.27;;
63534;SDS011;55128;50.230;18.944;2024-01-30T05:26:40;37.67;;;20.05;;
63534;SDS011;55128;50.230;18.944;2024-01-30T05:31:40;43.90;;;22.60;;
63534;SDS011;55128;50.230;18.944;2024-01-30T05:36:40;34.13;;;20.00;;
63534;SDS011;55128;50.230;18.944;2024-01-30T05:41:41;38.42;;;20.95;;
63534;SDS011;55128;50.230;18.944;2024-01-30T05:46:41;45.67;;;24.33;;
63534;SDS011;55128;50.230;18.944;2024-01-30T05:51:42;42.35;;;22.08;;
63534;SDS011;55128;50.230;18.944;2024-01-30T05:56:42;44.13;;;23.05;;
63534;SDS011;55128;50.230;18.944;2024-01-30T06:01:46;40.20;;;22.00;;
63534;SDS011;55128;50.230;18.944;2024-01-30T06:11:48;34.80;;;18.23;;
63534;SDS011;55128;50.230;18.944;2024-01-30T06:16:48;37.95;;;19.55;;
63534;SDS011;55128;50.230;18.944;2024-01-30T06:21:49;34.10;;;18.40;;
63534;SDS011;55128;50.230;18.944;2024-01-30T06:26:49;32.15;;;15.75;;
63534;SDS011;55128;50.230;18.944;2024-01-30T06:31:50;27.08;;;15.52;;
63534;SDS011;55128;50.230;18.944;2024-01-30T06:36:50;27.08;;;15.20;;
63534;SDS011;55128;50.230;18.944;2024-01-30T06:41:51;24.33;;;12.77;;
63534;SDS011;55128;50.230;18.944;2024-01-30T06:46:51;24.98;;;12.82;;
63534;SDS011;55128;50.230;18.944;2024-01-30T06:51:52;27.73;;;13.80;;
63534;SDS011;55128;50.230;18.944;2024-01-30T06:56:52;25.55;;;13.77;;
63534;SDS011;55128;50.230;18.944;2024-01-30T07:01:53;20.30;;;12.85;;
63534;SDS011;55128;50.230;18.944;2024-01-30T07:06:54;24.70;;;15.57;;
63534;SDS011;55128;50.230;18.944;2024-01-30T07:11:54;22.88;;;15.68;;
63534;SDS011;55128;50.230;18.944;2024-01-30T07:16:55;22.13;;;14.95;;
63534;SDS011;55128;50.230;18.944;2024-01-30T07:21:56;28.45;;;18.38;;
63534;SDS011;55128;50.230;18.944;2024-01-30T07:26:56;31.58;;;20.48;;
63534;SDS011;55128;50.230;18.944;2024-01-30T07:31:57;30.23;;;20.63;;
63534;SDS011;55128;50.230;18.944;2024-01-30T07:36:57;26.40;;;19.15;;
63534;SDS011;55128;50.230;18.944;2024-01-30T07:41:58;24.92;;;19.88;;
63534;SDS011;55128;50.230;18.944;2024-01-30T07:46:58;23.02;;;18.25;;
63534;SDS011;55128;50.230;18.944;2024-01-30T07:51:59;23.77;;;19.05;;
63534;SDS011;55128;50.230;18.944;2024-01-30T07:57:00;29.55;;;21.35;;
63534;SDS011;55128;50.230;18.944;2024-01-30T08:02:01;24.52;;;20.27;;
63534;SDS011;55128;50.230;18.944;2024-01-30T08:07:01;25.58;;;20.33;;
63534;SDS011;55128;50.230;18.944;2024-01-30T08:12:02;25.17;;;21.15;;
63534;SDS011;55128;50.230;18.944;2024-01-30T08:17:02;26.92;;;20.30;;
63534;SDS011;55128;50.230;18.944;2024-01-30T08:22:03;26.48;;;19.40;;
63534;SDS011;55128;50.230;18.944;2024-01-30T08:27:03;24.67;;;16.17;;
63534;SDS011;55128;50.230;18.944;2024-01-30T08:32:05;23.20;;;13.57;;
63534;SDS011;55128;50.230;18.944;2024-01-30T08:37:06;20.63;;;12.80;;
63534;SDS011;55128;50.230;18.944;2024-01-30T08:42:06;23.00;;;12.48;;
63534;SDS011;55128;50.230;18.944;2024-01-30T08:47:08;19.25;;;11.07;;
63534;SDS011;55128;50.230;18.944;2024-01-30T08:52:08;18.67;;;12.07;;
63534;SDS011;55128;50.230;18.944;2024-01-30T08:57:08;19.30;;;11.50;;
63534;SDS011;55128;50.230;18.944;2024-01-30T09:02:09;17.88;;;12.50;;
63534;SDS011;55128;50.230;18.944;2024-01-30T09:07:10;17.45;;;12.60;;
63534;SDS011;55128;50.230;18.944;2024-01-30T09:12:10;16.10;;;12.25;;
63534;SDS011;55128;50.230;18.944;2024-01-30T09:17:11;16.42;;;11.57;;
63534;SDS011;55128;50.230;18.944;2024-01-30T09:22:12;15.68;;;11.40;;
63534;SDS011;55128;50.230;18.944;2024-01-30T09:27:12;13.45;;;11.15;;
63534;SDS011;55128;50.230;18.944;2024-01-30T09:32:13;14.30;;;11.30;;
63534;SDS011;55128;50.230;18.944;2024-01-30T09:37:13;14.27;;;11.35;;
63534;SDS011;55128;50.230;18.944;2024-01-30T09:42:26;13.93;;;9.98;;
63534;SDS011;55128;50.230;18.944;2024-01-30T09:47:51;13.80;;;10.77;;
63534;SDS011;55128;50.230;18.944;2024-01-30T09:52:52;11.10;;;9.07;;
63534;SDS011;55128;50.230;18.944;2024-01-30T09:57:56;11.00;;;8.40;;
63534;SDS011;55128;50.230;18.944;2024-01-30T10:02:57;11.23;;;9.05;;
63534;SDS011;55128;50.230;18.944;2024-01-30T10:07:57;10.90;;;8.50;;
63534;SDS011;55128;50.230;18.944;2024-01-30T10:12:59;12.50;;;9.10;;
63534;SDS011;55128;50.230;18.944;2024-01-30T10:17:59;13.20;;;9.30;;
63534;SDS011;55128;50.230;18.944;2024-01-30T10:23:00;11.23;;;9.30;;
63534;SDS011;55128;50.230;18.944;2024-01-30T10:28:01;12.02;;;8.32;;
63534;SDS011;55128;50.230;18.944;2024-01-30T10:33:02;11.73;;;7.93;;
63534;SDS011;55128;50.230;18.944;2024-01-30T10:38:02;11.75;;;8.60;;
63534;SDS011;55128;50.230;18.944;2024-01-30T10:43:06;10.52;;;8.15;;
63534;SDS011;55128;50.230;18.944;2024-01-30T10:48:11;12.80;;;8.65;;
63534;SDS011;55128;50.230;18.944;2024-01-30T10:53:13;10.00;;;7.75;;
63534;SDS011;55128;50.230;18.944;2024-01-30T10:58:15;13.85;;;7.47;;
63534;SDS011;55128;50.230;18.944;2024-01-30T11:03:16;10.35;;;7.10;;
63534;SDS011;55128;50.230;18.944;2024-01-30T11:08:23;11.85;;;7.43;;
63534;SDS011;55128;50.230;18.944;2024-01-30T11:13:31;10.07;;;6.85;;
63534;SDS011;55128;50.230;18.944;2024-01-30T11:18:32;11.23;;;6.88;;
63534;SDS011;55128;50.230;18.944;2024-01-30T11:23:33;12.75;;;7.32;;
63534;SDS011;55128;50.230;18.944;2024-01-30T11:28:35;12.45;;;7.22;;
63534;SDS011;55128;50.230;18.944;2024-01-30T11:33:37;10.70;;;7.20;;
63534;SDS011;55128;50.230;18.944;2024-01-30T11:38:38;15.25;;;7.10;;
63534;SDS011;55128;50.230;18.944;2024-01-30T11:43:39;13.82;;;7.18;;
63534;SDS011;55128;50.230;18.944;2024-01-30T11:48:39;14.13;;;7.55;;
63534;SDS011;55128;50.230;18.944;2024-01-30T11:53:41;14.82;;;7.50;;
63534;SDS011;55128;50.230;18.944;2024-01-30T11:58:45;16.42;;;7.55;;
63534;SDS011;55128;50.230;18.944;2024-01-30T12:03:51;11.88;;;6.93;;
63534;SDS011;55128;50.230;18.944;2024-01-30T12:08:59;12.95;;;7.05;;
63534;SDS011;55128;50.230;18.944;2024-01-30T12:14:00;14.70;;;7.57;;
63534;SDS011;55128;50.230;18.944;2024-01-30T12:19:00;14.45;;;7.35;;
63534;SDS011;55128;50.230;18.944;2024-01-30T12:24:02;12.35;;;7.75;;
63534;SDS011;55128;50.230;18.944;2024-01-30T12:29:03;12.63;;;7.40;;
63534;SDS011;55128;50.230;18.944;2024-01-30T12:34:04;12.38;;;7.63;;
63534;SDS011;55128;50.230;18.944;2024-01-30T12:39:05;16.00;;;8.20;;
63534;SDS011;55128;50.230;18.944;2024-01-30T12:44:05;12.07;;;8.13;;
63534;SDS011;55128;50.230;18.944;2024-01-30T12:49:06;17.48;;;8.52;;
63534;SDS011;55128;50.230;18.944;2024-01-30T12:54:06;13.02;;;7.40;;
63534;SDS011;55128;50.230;18.944;2024-01-30T12:59:07;15.60;;;9.27;;
63534;SDS011;55128;50.230;18.944;2024-01-30T13:04:08;12.88;;;7.63;;
63534;SDS011;55128;50.230;18.944;2024-01-30T13:09:08;12.00;;;8.30;;
63534;SDS011;55128;50.230;18.944;2024-01-30T13:14:09;14.15;;;7.40;;
63534;SDS011;55128;50.230;18.944;2024-01-30T13:19:09;14.90;;;7.43;;
63534;SDS011;55128;50.230;18.944;2024-01-30T13:24:10;13.95;;;8.38;;
63534;SDS011;55128;50.230;18.944;2024-01-30T13:29:10;14.43;;;8.32;;
63534;SDS011;55128;50.230;18.944;2024-01-30T13:34:11;14.05;;;8.20;;
63534;SDS011;55128;50.230;18.944;2024-01-30T13:39:11;12.75;;;8.18;;
63534;SDS011;55128;50.230;18.944;2024-01-30T13:44:12;14.02;;;9.00;;
63534;SDS011;55128;50.230;18.944;2024-01-30T13:49:13;17.08;;;8.68;;
63534;SDS011;55128;50.230;18.944;2024-01-30T13:54:14;13.27;;;8.15;;
63534;SDS011;55128;50.230;18.944;2024-01-30T13:59:15;12.00;;;8.18;;
63534;SDS011;55128;50.230;18.944;2024-01-30T14:04:21;13.02;;;8.38;;
63534;SDS011;55128;50.230;18.944;2024-01-30T14:09:21;14.13;;;9.07;;
63534;SDS011;55128;50.230;18.944;2024-01-30T14:14:22;13.85;;;7.70;;
63534;SDS011;55128;50.230;18.944;2024-01-30T14:19:22;16.13;;;9.90;;
63534;SDS011;55128;50.230;18.944;2024-01-30T14:24:23;14.60;;;8.23;;
63534;SDS011;55128;50.230;18.944;2024-01-30T14:29:23;14.82;;;7.65;;
63534;SDS011;55128;50.230;18.944;2024-01-30T14:34:24;15.77;;;8.48;;
63534;SDS011;55128;50.230;18.944;2024-01-30T14:39:24;15.57;;;8.73;;
63534;SDS011;55128;50.230;18.944;2024-01-30T14:44:25;15.88;;;8.93;;
63534;SDS011;55128;50.230;18.944;2024-01-30T14:49:25;13.90;;;8.85;;
63534;SDS011;55128;50.230;18.944;2024-01-30T14:54:26;17.10;;;9.15;;
63534;SDS011;55128;50.230;18.944;2024-01-30T14:59:27;13.52;;;8.38;;
63534;SDS011;55128;50.230;18.944;2024-01-30T15:04:27;14.82;;;8.48;;
63534;SDS011;55128;50.230;18.944;2024-01-30T15:09:28;19.83;;;10.23;;
63534;SDS011;55128;50.230;18.944;2024-01-30T15:14:28;16.02;;;8.82;;
63534;SDS011;55128;50.230;18.944;2024-01-30T15:19:29;17.65;;;10.13;;
63534;SDS011;55128;50.230;18.944;2024-01-30T15:24:29;16.75;;;8.73;;
63534;SDS011;55128;50.230;18.944;2024-01-30T15:29:29;15.73;;;9.35;;
63534;SDS011;55128;50.230;18.944;2024-01-30T15:34:30;15.95;;;8.55;;
63534;SDS011;55128;50.230;18.944;2024-01-30T15:39:30;15.43;;;9.10;;
63534;SDS011;55128;50.230;18.944;2024-01-30T15:44:31;18.45;;;9.73;;
63534;SDS011;55128;50.230;18.944;2024-01-30T15:49:31;18.45;;;9.13;;
63534;SDS011;55128;50.230;18.944;2024-01-30T15:54:32;26.77;;;14.23;;
63534;SDS011;55128;50.230;18.944;2024-01-30T15:59:32;23.42;;;12.77;;
63534;SDS011;55128;50.230;18.944;2024-01-30T16:04:33;21.15;;;11.45;;
63534;SDS011;55128;50.230;18.944;2024-01-30T16:09:33;21.23;;;12.13;;
63534;SDS011;55128;50.230;18.944;2024-01-30T16:14:34;20.13;;;11.65;;
63534;SDS011;55128;50.230;18.944;2024-01-30T16:19:36;19.33;;;10.23;;
63534;SDS011;55128;50.230;18.944;2024-01-30T16:24:36;18.98;;;10.45;;
63534;SDS011;55128;50.230;18.944;2024-01-30T16:29:37;17.42;;;9.63;;
63534;SDS011;55128;50.230;18.944;2024-01-30T16:34:37;21.35;;;11.13;;
63534;SDS011;55128;50.230;18.944;2024-01-30T16:39:37;22.52;;;12.05;;
63534;SDS011;55128;50.230;18.944;2024-01-30T16:44:38;21.63;;;12.10;;
63534;SDS011;55128;50.230;18.944;2024-01-30T16:49:38;20.20;;;12.43;;
63534;SDS011;55128;50.230;18.944;2024-01-30T16:54:38;19.43;;;11.00;;
63534;SDS011;55128;50.230;18.944;2024-01-30T16:59:39;18.00;;;10.57;;
63534;SDS011;55128;50.230;18.944;2024-01-30T17:04:39;17.05;;;9.88;;
63534;SDS011;55128;50.230;18.944;2024-01-30T17:09:40;17.90;;;10.27;;
63534;SDS011;55128;50.230;18.944;2024-01-30T17:14:40;34.30;;;16.33;;
63534;SDS011;55128;50.230;18.944;2024-01-30T17:19:41;18.10;;;9.40;;
63534;SDS011;55128;50.230;18.944;2024-01-30T17:24:42;21.08;;;11.18;;
63534;SDS011;55128;50.230;18.944;2024-01-30T17:29:43;15.90;;;8.88;;
63534;SDS011;55128;50.230;18.944;2024-01-30T17:34:43;16.92;;;9.18;;
63534;SDS011;55128;50.230;18.944;2024-01-30T17:39:44;18.65;;;9.10;;
63534;SDS011;55128;50.230;18.944;2024-01-30T17:44:45;26.00;;;14.50;;
63534;SDS011;55128;50.230;18.944;2024-01-30T17:49:46;19.27;;;9.90;;
63534;SDS011;55128;50.230;18.944;2024-01-30T17:54:46;19.97;;;9.80;;
63534;SDS011;55128;50.230;18.944;2024-01-30T17:59:46;20.20;;;9.35;;
63534;SDS011;55128;50.230;18.944;2024-01-30T18:04:47;18.67;;;9.63;;
63534;SDS011;55128;50.230;18.944;2024-01-30T18:09:48;23.75;;;10.68;;
63534;SDS011;55128;50.230;18.944;2024-01-30T18:14:49;26.85;;;12.02;;
63534;SDS011;55128;50.230;18.944;2024-01-30T18:19:49;23.80;;;11.27;;
63534;SDS011;55128;50.230;18.944;2024-01-30T18:24:50;25.87;;;12.20;;
63534;SDS011;55128;50.230;18.944;2024-01-30T18:29:50;30.30;;;13.18;;
63534;SDS011;55128;50.230;18.944;2024-01-30T18:34:51;28.45;;;13.63;;
63534;SDS011;55128;50.230;18.944;2024-01-30T18:39:51;29.67;;;13.57;;
63534;SDS011;55128;50.230;18.944;2024-01-30T18:44:51;24.52;;;12.50;;
63534;SDS011;55128;50.230;18.944;2024-01-30T18:49:52;26.65;;;12.75;;
63534;SDS011;55128;50.230;18.944;2024-01-30T18:54:52;24.38;;;10.98;;
63534;SDS011;55128;50.230;18.944;2024-01-30T18:59:53;26.70;;;12.93;;
63534;SDS011;55128;50.230;18.944;2024-01-30T19:04:53;30.13;;;14.55;;
63534;SDS011;55128;50.230;18.944;2024-01-30T19:09:54;25.98;;;12.77;;
63534;SDS011;55128;50.230;18.944;2024-01-30T19:14:55;22.75;;;11.02;;
63534;SDS011;55128;50.230;18.944;2024-01-30T19:19:55;21.40;;;10.70;;
63534;SDS011;55128;50.230;18.944;2024-01-30T19:24:56;23.52;;;11.32;;
63534;SDS011;55128;50.230;18.944;2024-01-30T19:29:56;25.38;;;9.93;;
63534;SDS011;55128;50.230;18.944;2024-01-30T19:34:57;22.23;;;10.95;;
63534;SDS011;55128;50.230;18.944;2024-01-30T19:39:58;17.93;;;8.53;;
63534;SDS011;55128;50.230;18.944;2024-01-30T19:44:59;18.10;;;10.02;;
63534;SDS011;55128;50.230;18.944;2024-01-30T19:49:59;19.80;;;8.82;;
63534;SDS011;55128;50.230;18.944;2024-01-30T19:54:59;17.20;;;8.10;;
63534;SDS011;55128;50.230;18.944;2024-01-30T20:00:00;18.67;;;8.95;;
63534;SDS011;55128;50.230;18.944;2024-01-30T20:05:01;15.05;;;7.80;;
63534;SDS011;55128;50.230;18.944;2024-01-30T20:10:01;15.10;;;7.40;;
63534;SDS011;55128;50.230;18.944;2024-01-30T20:15:02;17.02;;;7.57;;
63534;SDS011;55128;50.230;18.944;2024-01-30T20:20:03;14.70;;;7.25;;
63534;SDS011;55128;50.230;18.944;2024-01-30T20:25:04;14.27;;;7.63;;
63534;SDS011;55128;50.230;18.944;2024-01-30T20:30:08;12.82;;;6.40;;
63534;SDS011;55128;50.230;18.944;2024-01-30T20:35:12;14.45;;;6.97;;
63534;SDS011;55128;50.230;18.944;2024-01-30T20:40:12;12.90;;;6.40;;
63534;SDS011;55128;50.230;18.944;2024-01-30T20:45:12;15.82;;;6.57;;
63534;SDS011;55128;50.230;18.944;2024-01-30T20:50:13;15.80;;;7.20;;
63534;SDS011;55128;50.230;18.944;2024-01-30T20:55:14;16.23;;;7.25;;
63534;SDS011;55128;50.230;18.944;2024-01-30T21:00:14;20.00;;;8.43;;
63534;SDS011;55128;50.230;18.944;2024-01-30T21:05:16;20.92;;;7.72;;
63534;SDS011;55128;50.230;18.944;2024-01-30T21:10:22;16.23;;;8.45;;
63534;SDS011;55128;50.230;18.944;2024-01-30T21:15:22;15.65;;;7.03;;
63534;SDS011;55128;50.230;18.944;2024-01-30T21:20:23;23.98;;;8.80;;
63534;SDS011;55128;50.230;18.944;2024-01-30T21:25:23;18.38;;;8.07;;
63534;SDS011;55128;50.230;18.944;2024-01-30T21:30:23;17.87;;;6.87;;
63534;SDS011;55128;50.230;18.944;2024-01-30T21:35:24;16.80;;;7.43;;
63534;SDS011;55128;50.230;18.944;2024-01-30T21:40:24;12.57;;;5.90;;
63534;SDS011;55128;50.230;18.944;2024-01-30T21:45:25;17.17;;;7.23;;
63534;SDS011;55128;50.230;18.944;2024-01-30T21:50:25;18.60;;;7.70;;
63534;SDS011;55128;50.230;18.944;2024-01-30T21:55:25;12.40;;;6.17;;
63534;SDS011;55128;50.230;18.944;2024-01-30T22:00:26;14.07;;;6.13;;
63534;SDS011;55128;50.230;18.944;2024-01-30T22:05:26;11.93;;;6.03;;
63534;SDS011;55128;50.230;18.944;2024-01-30T22:10:26;13.57;;;6.10;;
63534;SDS011;55128;50.230;18.944;2024-01-30T22:15:27;10.80;;;5.57;;
63534;SDS011;55128;50.230;18.944;2024-01-30T22:20:29;11.98;;;6.85;;
63534;SDS011;55128;50.230;18.944;2024-01-30T22:25:29;13.67;;;6.90;;
63534;SDS011;55128;50.230;18.944;2024-01-30T22:30:29;18.10;;;6.63;;
63534;SDS011;55128;50.230;18.944;2024-01-30T22:35:30;12.47;;;7.00;;
63534;SDS011;55128;50.230;18.944;2024-01-30T22:40:30;15.43;;;7.93;;
63534;SDS011;55128;50.230;18.944;2024-01-30T22:45:30;15.53;;;6.23;;
63534;SDS011;55128;50.230;18.944;2024-01-30T22:50:31;10.77;;;7.00;;
63534;SDS011;55128;50.230;18.944;2024-01-30T22:55:31;13.82;;;7.25;;
63534;SDS011;55128;50.230;18.944;2024-01-30T23:00:31;14.47;;;7.60;;
63534;SDS011;55128;50.230;18.944;2024-01-30T23:05:32;13.02;;;6.20;;
63534;SDS011;55128;50.230;18.944;2024-01-30T23:10:33;14.00;;;7.43;;
63534;SDS011;55128;50.230;18.944;2024-01-30T23:15:33;12.27;;;6.63;;
63534;SDS011;55128;50.230;18.944;2024-01-30T23:20:34;12.27;;;6.70;;
63534;SDS011;55128;50.230;18.944;2024-01-30T23:25:36;13.68;;;7.35;;
63534;SDS011;55128;50.230;18.944;2024-01-30T23:30:36;11.13;;;6.30;;
63534;SDS011;55128;50.230;18.944;2024-01-30T23:35:37;12.02;;;7.07;;
63534;SDS011;55128;50.230;18.944;2024-01-30T23:40:37;11.73;;;6.78;;
63534;SDS011;55128;50.230;18.944;2024-01-30T23:45:41;11.32;;;7.07;;
63534;SDS011;55128;50.230;18.944;2024-01-30T23:50:43;12.50;;;6.53;;
63534;SDS011;55128;50.230;18.944;2024-01-30T23:55:43;11.18;;;7.32;;
